Time;durP1;ratioP1;P1;durP2;ratioP2;P2;SDS_P1;SDS_P2;PMS_P1;PMS_P2;Temp;Humidity;BMP_temperature;BMP_pressure;BME280_temperature;BME280_humidity;BME280_pressure;Samples;Min_cycle;Max_cycle;Signal;HPM_P1;HPM_P2
2021/09/15 00:00:23;;;;;;;5.97;3.20;;;21.50;74.40;;;;;;4956252;29;20050;-77
2021/09/15 00:02:49;;;;;;;3.38;2.70;;;21.50;74.40;;;;;;4957312;29;20027;-77
2021/09/15 00:05:15;;;;;;;3.78;2.60;;;21.50;74.40;;;;;;4957083;29;20046;-76
2021/09/15 00:07:40;;;;;;;4.40;2.63;;;21.40;74.60;;;;;;4954257;29;20028;-76
2021/09/15 00:10:07;;;;;;;4.38;3.00;;;21.40;75.30;;;;;;4953524;29;20416;-76
2021/09/15 00:12:32;;;;;;;5.18;3.10;;;21.50;74.80;;;;;;4953335;29;20026;-77
2021/09/15 00:14:58;;;;;;;5.28;3.00;;;21.40;74.70;;;;;;4953236;29;20035;-75
2021/09/15 00:17:24;;;;;;;5.90;2.63;;;21.40;74.60;;;;;;4936227;29;20027;-75
2021/09/15 00:19:49;;;;;;;5.38;2.92;;;21.40;74.60;;;;;;4954023;29;20066;-76
2021/09/15 00:22:15;;;;;;;5.68;3.22;;;21.40;75.20;;;;;;4953530;29;20083;-74
2021/09/15 00:24:40;;;;;;;5.18;2.78;;;21.40;74.90;;;;;;4953577;29;20028;-76
2021/09/15 00:27:06;;;;;;;5.53;3.10;;;21.30;74.90;;;;;;4953405;29;20038;-76
2021/09/15 00:29:32;;;;;;;6.30;3.17;;;21.20;74.80;;;;;;4953250;29;20023;-76
2021/09/15 00:31:57;;;;;;;5.00;2.75;;;21.20;75.30;;;;;;4954021;29;20078;-76
2021/09/15 00:34:27;;;;;;;5.53;3.15;;;21.20;75.40;;;;;;4953066;29;20404;-75
2021/09/15 00:36:53;;;;;;;4.97;2.90;;;21.20;75.20;;;;;;4953303;29;20024;-76
2021/09/15 00:39:18;;;;;;;3.33;2.72;;;21.20;75.20;;;;;;4953113;29;20035;-75
2021/09/15 00:41:44;;;;;;;5.03;3.03;;;21.20;75.50;;;;;;4935777;29;20019;-76
2021/09/15 00:44:10;;;;;;;4.93;2.72;;;21.10;75.50;;;;;;4953449;29;20027;-75
2021/09/15 00:46:37;;;;;;;3.58;2.90;;;21.10;75.90;;;;;;4953811;28;20037;-76
2021/09/15 00:49:04;;;;;;;5.10;3.90;;;21.10;75.60;;;;;;4956891;29;20035;-76
2021/09/15 00:51:34;;;;;;;6.15;3.50;;;21.10;75.80;;;;;;4956837;29;20497;-76
2021/09/15 00:54:00;;;;;;;4.85;3.60;;;21.10;75.60;;;;;;4957202;29;20015;-75
2021/09/15 00:56:26;;;;;;;5.53;3.88;;;21.20;76.00;;;;;;4956448;29;20092;-75
2021/09/15 00:58:52;;;;;;;5.22;3.85;;;21.20;76.40;;;;;;4957392;29;20400;-76
2021/09/15 01:01:18;;;;;;;4.95;3.70;;;21.10;76.00;;;;;;4956626;29;20123;-76
2021/09/15 01:03:44;;;;;;;4.90;3.47;;;21.20;76.30;;;;;;4956771;29;20110;-75
2021/09/15 01:06:11;;;;;;;4.28;3.75;;;21.30;76.40;;;;;;4956726;29;20027;-76
2021/09/15 01:08:37;;;;;;;4.38;3.90;;;21.30;76.30;;;;;;4956770;29;20114;-76
2021/09/15 01:11:03;;;;;;;6.10;3.88;;;21.30;76.30;;;;;;4956647;29;20039;-76
2021/09/15 01:13:30;;;;;;;6.28;4.30;;;21.40;76.00;;;;;;4956890;29;20074;-76
2021/09/15 01:15:58;;;;;;;5.45;4.07;;;21.40;76.10;;;;;;4956492;29;20039;-75
2021/09/15 01:18:23;;;;;;;5.63;4.22;;;21.30;76.10;;;;;;4956326;29;20040;-76
2021/09/15 01:20:49;;;;;;;5.32;4.20;;;21.40;76.30;;;;;;4956571;29;20031;-77
2021/09/15 01:23:15;;;;;;;6.18;4.32;;;21.40;76.20;;;;;;4956543;29;20081;-76
2021/09/15 01:25:41;;;;;;;7.07;4.43;;;21.30;76.40;;;;;;4954560;29;20567;-75
2021/09/15 01:28:07;;;;;;;6.47;4.50;;;21.40;76.90;;;;;;4956216;29;20118;-75
2021/09/15 01:30:32;;;;;;;7.63;4.88;;;21.30;76.60;;;;;;4956223;29;20035;-76
2021/09/15 01:32:58;;;;;;;6.35;4.47;;;21.30;76.50;;;;;;4938944;29;20087;-75
2021/09/15 01:35:24;;;;;;;7.40;4.85;;;21.40;76.90;;;;;;4956074;29;20495;-76
2021/09/15 01:37:49;;;;;;;6.07;4.45;;;21.30;76.40;;;;;;4956630;29;20023;-76
2021/09/15 01:40:15;;;;;;;7.57;4.82;;;21.30;76.40;;;;;;4955662;29;20039;-75
2021/09/15 01:42:41;;;;;;;6.80;4.97;;;21.30;76.50;;;;;;4955973;29;20023;-75
2021/09/15 01:45:09;;;;;;;5.50;4.45;;;21.30;76.20;;;;;;4956027;29;20118;-75
2021/09/15 01:47:35;;;;;;;7.47;4.53;;;21.20;76.20;;;;;;4955884;29;20030;-75
2021/09/15 01:50:01;;;;;;;7.03;4.85;;;21.20;76.20;;;;;;4956266;29;20031;-75
2021/09/15 01:52:27;;;;;;;6.00;4.95;;;21.20;76.70;;;;;;4955746;29;20035;-75
2021/09/15 01:54:52;;;;;;;6.20;4.70;;;21.20;76.60;;;;;;4955611;29;20535;-75
2021/09/15 01:57:18;;;;;;;5.88;4.82;;;21.10;76.60;;;;;;4955585;29;20122;-75
2021/09/15 01:59:44;;;;;;;6.18;4.85;;;21.10;76.80;;;;;;4954803;28;20031;-75
2021/09/15 02:02:13;;;;;;;8.93;5.25;;;21.10;76.70;;;;;;4955888;29;20031;-75
2021/09/15 02:04:39;;;;;;;5.80;5.15;;;21.10;76.80;;;;;;4956011;29;20027;-76
2021/09/15 02:07:05;;;;;;;6.60;4.93;;;21.10;76.70;;;;;;4955460;29;20507;-75
2021/09/15 02:09:30;;;;;;;8.98;5.20;;;21.10;77.00;;;;;;4955366;29;20023;-75
2021/09/15 02:11:56;;;;;;;7.38;5.38;;;21.10;76.90;;;;;;4955509;29;20464;-75
2021/09/15 02:14:22;;;;;;;8.38;5.85;;;21.10;77.00;;;;;;4955492;29;20027;-75
2021/09/15 02:16:48;;;;;;;8.80;6.18;;;21.10;77.10;;;;;;4955906;29;20031;-75
2021/09/15 02:19:14;;;;;;;9.13;5.85;;;21.10;77.20;;;;;;4955315;29;20035;-75
2021/09/15 02:21:40;;;;;;;8.40;6.65;;;21.10;77.00;;;;;;4955387;29;20027;-75
2021/09/15 02:24:06;;;;;;;9.75;6.90;;;21.10;77.30;;;;;;4955082;29;20035;-75
2021/09/15 02:26:32;;;;;;;10.40;6.68;;;21.10;77.60;;;;;;4955287;29;20511;-75
2021/09/15 02:28:58;;;;;;;8.43;6.40;;;21.10;77.80;;;;;;4955831;29;20035;-75
2021/09/15 02:31:24;;;;;;;9.18;6.63;;;21.10;77.80;;;;;;4954917;29;20070;-74
2021/09/15 02:33:50;;;;;;;9.38;6.18;;;21.20;77.50;;;;;;4954978;29;20496;-74
2021/09/15 02:36:16;;;;;;;10.00;6.72;;;21.20;77.50;;;;;;4937798;29;20058;-73
2021/09/15 02:38:41;;;;;;;11.57;6.70;;;21.20;77.40;;;;;;4937551;29;20465;-74
2021/09/15 02:41:07;;;;;;;8.77;6.70;;;21.20;77.30;;;;;;4955057;29;20027;-74
2021/09/15 02:43:34;;;;;;;11.07;6.45;;;21.20;77.70;;;;;;4955304;29;20054;-74
2021/09/15 02:46:00;;;;;;;10.35;6.15;;;21.20;77.30;;;;;;4954808;29;20054;-74
2021/09/15 02:48:25;;;;;;;11.00;6.30;;;21.20;77.90;;;;;;4937406;29;20504;-76
2021/09/15 02:50:51;;;;;;;9.88;6.57;;;21.20;77.30;;;;;;4954853;29;20050;-77
2021/09/15 02:53:17;;;;;;;9.32;6.68;;;21.20;77.40;;;;;;4954337;29;20023;-76
2021/09/15 02:55:43;;;;;;;10.63;6.28;;;21.20;77.50;;;;;;4955121;29;20031;-76
2021/09/15 02:58:09;;;;;;;8.57;5.95;;;21.20;77.40;;;;;;4954596;29;20033;-76
2021/09/15 03:00:35;;;;;;;12.02;7.13;;;21.20;77.70;;;;;;4954392;29;20023;-76
2021/09/15 03:03:02;;;;;;;9.18;6.63;;;21.20;77.70;;;;;;4954540;29;20504;-77
2021/09/15 03:05:28;;;;;;;10.52;6.35;;;21.20;77.50;;;;;;4939292;29;20023;-76
2021/09/15 03:07:54;;;;;;;10.75;6.10;;;21.30;77.80;;;;;;4954642;29;20484;-76
2021/09/15 03:10:19;;;;;;;7.53;5.82;;;21.30;77.70;;;;;;4954182;28;20035;-76
2021/09/15 03:12:45;;;;;;;8.65;6.03;;;21.20;77.70;;;;;;4954294;29;20030;-77
2021/09/15 03:15:11;;;;;;;9.45;5.47;;;21.30;77.90;;;;;;4954303;29;20046;-77
2021/09/15 03:17:37;;;;;;;8.02;5.65;;;21.30;78.20;;;;;;4954358;29;20477;-75
2021/09/15 03:20:04;;;;;;;9.85;5.38;;;21.20;77.90;;;;;;4954735;29;20027;-76
2021/09/15 03:22:30;;;;;;;8.70;5.50;;;21.20;78.20;;;;;;4954257;29;20480;-76
2021/09/15 03:24:55;;;;;;;8.20;5.40;;;21.20;78.40;;;;;;4954260;29;20049;-76
2021/09/15 03:27:21;;;;;;;8.20;5.32;;;21.20;78.10;;;;;;4953957;29;20028;-77
2021/09/15 03:29:47;;;;;;;7.68;5.30;;;21.20;78.30;;;;;;4954168;29;20082;-76
2021/09/15 03:32:12;;;;;;;7.93;5.35;;;21.20;78.50;;;;;;4954145;29;20393;-76
2021/09/15 03:34:38;;;;;;;8.88;5.80;;;21.10;78.50;;;;;;4954493;29;20039;-76
2021/09/15 03:37:03;;;;;;;6.43;5.00;;;21.20;78.80;;;;;;4953509;29;20031;-78
2021/09/15 03:39:29;;;;;;;8.52;5.95;;;21.20;78.60;;;;;;4953980;29;20035;-75
2021/09/15 03:41:55;;;;;;;8.60;5.82;;;21.10;78.40;;;;;;4954016;29;20030;-76
2021/09/15 03:44:21;;;;;;;8.23;5.65;;;21.10;78.50;;;;;;4953839;29;20050;-76
2021/09/15 03:46:46;;;;;;;7.85;5.78;;;21.00;79.10;;;;;;4954331;29;20031;-75
2021/09/15 03:49:12;;;;;;;9.88;6.60;;;21.00;78.90;;;;;;4953809;29;20378;-76
2021/09/15 03:51:38;;;;;;;7.60;5.70;;;21.00;79.20;;;;;;4953464;29;20032;-76
2021/09/15 03:54:03;;;;;;;9.68;6.13;;;21.00;79.20;;;;;;4953669;29;20029;-76
2021/09/15 03:56:29;;;;;;;8.32;5.72;;;21.00;79.10;;;;;;4953945;29;20086;-76
2021/09/15 03:58:55;;;;;;;9.18;6.25;;;21.00;79.20;;;;;;4954188;29;20085;-77
2021/09/15 04:01:20;;;;;;;10.88;6.40;;;20.90;80.20;;;;;;4953576;29;20108;-76
2021/09/15 04:03:46;;;;;;;8.27;6.05;;;20.90;79.20;;;;;;4952793;29;20031;-76
2021/09/15 04:06:12;;;;;;;9.70;6.78;;;20.90;79.80;;;;;;4952632;29;20038;-76
2021/09/15 04:08:37;;;;;;;11.45;7.13;;;20.90;79.70;;;;;;4953081;29;20030;-77
2021/09/15 04:11:03;;;;;;;11.23;6.97;;;20.90;79.80;;;;;;4953244;29;20055;-76
2021/09/15 04:13:29;;;;;;;10.07;6.78;;;20.80;79.70;;;;;;4953319;29;20465;-76
2021/09/15 04:15:55;;;;;;;9.93;6.20;;;20.90;80.20;;;;;;4952993;29;20082;-76
2021/09/15 04:18:20;;;;;;;10.63;6.68;;;20.90;80.00;;;;;;4953022;29;20077;-76
2021/09/15 04:20:47;;;;;;;10.98;7.18;;;20.90;80.00;;;;;;4953241;29;20519;-76
2021/09/15 04:23:17;;;;;;;11.05;7.13;;;20.80;79.90;;;;;;4956461;28;20043;-76
2021/09/15 04:31:24;;;;;;;9.38;6.85;;;21.00;80.40;;;;;;4957326;29;20081;-76
2021/09/15 04:33:51;;;;;;;11.23;7.15;;;21.00;80.20;;;;;;4956698;29;20051;-76
2021/09/15 04:36:17;;;;;;;11.63;8.10;;;21.00;79.90;;;;;;4961641;29;20081;-77
2021/09/15 04:38:43;;;;;;;9.90;7.03;;;21.00;80.00;;;;;;4964807;29;20087;-77
2021/09/15 04:41:11;;;;;;;9.02;6.40;;;21.00;80.00;;;;;;4966521;29;20079;-74
2021/09/15 04:43:36;;;;;;;12.52;7.78;;;21.00;80.00;;;;;;4962918;29;20035;-75
2021/09/15 04:46:02;;;;;;;11.32;7.38;;;21.00;80.10;;;;;;4956964;29;20126;-76
2021/09/15 04:48:28;;;;;;;13.05;7.85;;;21.00;80.50;;;;;;4939459;29;20566;-76
2021/09/15 04:50:53;;;;;;;12.80;7.72;;;21.00;80.00;;;;;;4937576;29;20039;-76
2021/09/15 04:53:20;;;;;;;11.90;7.75;;;21.00;80.10;;;;;;4953204;29;20082;-76
2021/09/15 04:55:46;;;;;;;11.50;7.65;;;20.90;80.00;;;;;;4957457;29;20031;-77
2021/09/15 04:58:11;;;;;;;11.65;7.38;;;21.00;80.20;;;;;;4954107;29;20038;-77
2021/09/15 05:00:37;;;;;;;14.07;7.93;;;20.90;80.30;;;;;;4956436;29;20094;-77
2021/09/15 05:03:03;;;;;;;9.88;7.50;;;21.00;80.40;;;;;;4956203;29;20058;-77
2021/09/15 05:05:28;;;;;;;11.00;7.75;;;20.90;80.60;;;;;;4941586;29;20027;-76
2021/09/15 05:07:54;;;;;;;10.73;7.40;;;20.90;80.70;;;;;;4939963;29;20027;-76
2021/09/15 05:10:24;;;;;;;8.50;6.28;;;20.90;80.50;;;;;;4956612;29;20066;-76
2021/09/15 05:12:54;;;;;;;8.40;6.35;;;20.90;80.60;;;;;;4956708;29;20033;-76
2021/09/15 05:15:21;;;;;;;8.32;6.15;;;20.90;80.40;;;;;;4956344;29;20034;-76
2021/09/15 05:17:47;;;;;;;9.35;6.45;;;20.90;81.50;;;;;;4938996;29;20035;-75
2021/09/15 05:20:16;;;;;;;8.65;6.18;;;20.90;80.60;;;;;;4956780;29;20019;-76
2021/09/15 05:22:43;;;;;;;8.50;6.05;;;21.00;80.40;;;;;;4954846;29;20187;-76
2021/09/15 05:25:09;;;;;;;7.35;5.38;;;21.00;80.30;;;;;;4956335;29;20114;-76
2021/09/15 05:27:35;;;;;;;7.68;5.80;;;21.00;80.50;;;;;;4952182;29;20395;-76
2021/09/15 05:30:00;;;;;;;9.52;6.38;;;20.90;80.20;;;;;;4943963;29;20023;-75
2021/09/15 05:32:26;;;;;;;7.65;5.72;;;20.90;80.30;;;;;;4946516;29;20066;-75
2021/09/15 05:34:52;;;;;;;8.40;5.72;;;20.90;80.20;;;;;;4941942;28;20156;-76
2021/09/15 05:37:17;;;;;;;9.25;5.95;;;20.90;80.20;;;;;;4937723;29;20041;-75
2021/09/15 05:39:43;;;;;;;8.00;5.47;;;20.90;80.60;;;;;;4955733;29;20114;-75
2021/09/15 05:42:09;;;;;;;8.77;6.10;;;20.90;80.60;;;;;;4956163;29;20031;-76
2021/09/15 05:44:34;;;;;;;9.95;6.35;;;20.90;80.40;;;;;;4955632;29;20027;-76
2021/09/15 05:47:00;;;;;;;11.70;7.07;;;20.90;80.20;;;;;;4956356;29;20035;-76
2021/09/15 05:49:25;;;;;;;10.63;7.03;;;20.90;80.30;;;;;;4955393;29;20031;-75
2021/09/15 05:51:51;;;;;;;11.98;6.53;;;20.80;80.20;;;;;;4954992;29;20118;-75
2021/09/15 05:54:17;;;;;;;9.27;6.80;;;20.80;80.20;;;;;;4955586;29;20051;-75
2021/09/15 05:56:42;;;;;;;7.55;5.93;;;20.80;80.70;;;;;;4955856;29;20031;-75
2021/09/15 05:59:08;;;;;;;10.15;6.93;;;20.90;80.60;;;;;;4938207;29;20031;-75
2021/09/15 06:01:34;;;;;;;9.82;6.25;;;20.80;80.40;;;;;;4937950;29;20036;-73
2021/09/15 06:03:59;;;;;;;8.25;6.15;;;20.90;80.50;;;;;;4943719;29;20480;-76
2021/09/15 06:06:25;;;;;;;9.68;7.00;;;20.80;80.70;;;;;;4961807;29;20023;-77
2021/09/15 06:08:51;;;;;;;9.75;6.70;;;20.80;80.40;;;;;;4972950;29;20742;-77
2021/09/15 06:11:16;;;;;;;10.27;7.03;;;20.80;80.30;;;;;;4973126;29;20098;-78
2021/09/15 06:13:42;;;;;;;12.15;7.47;;;20.80;80.40;;;;;;4955761;29;20030;-76
2021/09/15 06:16:08;;;;;;;12.35;7.90;;;20.70;80.70;;;;;;4954820;29;20110;-76
2021/09/15 06:18:34;;;;;;;11.45;7.13;;;20.70;80.60;;;;;;4955171;29;20033;-76
2021/09/15 06:21:00;;;;;;;10.48;7.47;;;20.70;80.50;;;;;;4955360;29;20571;-75
2021/09/15 06:23:26;;;;;;;10.13;6.93;;;20.70;80.50;;;;;;4949771;29;20027;-74
2021/09/15 06:25:52;;;;;;;10.57;7.63;;;20.60;80.40;;;;;;4955925;29;20027;-75
2021/09/15 06:28:17;;;;;;;10.75;7.22;;;20.60;80.50;;;;;;4954826;29;20517;-75
2021/09/15 06:30:50;;;;;;;9.68;6.85;;;20.60;80.70;;;;;;4954645;29;20074;-75
2021/09/15 06:33:16;;;;;;;9.13;6.47;;;20.70;80.40;;;;;;4950296;29;20593;-75
2021/09/15 06:35:41;;;;;;;8.80;6.68;;;20.70;80.00;;;;;;4948964;29;20118;-75
2021/09/15 06:38:11;;;;;;;9.25;6.53;;;20.60;79.80;;;;;;4941703;29;20027;-77
2021/09/15 06:40:37;;;;;;;9.13;6.78;;;20.60;79.90;;;;;;4954524;29;20118;-76
2021/09/15 06:43:02;;;;;;;9.25;6.57;;;20.60;79.80;;;;;;4954676;29;20122;-76
2021/09/15 06:45:28;;;;;;;8.15;6.05;;;20.60;79.80;;;;;;4951485;28;20035;-76
2021/09/15 06:47:54;;;;;;;8.65;6.07;;;20.60;79.60;;;;;;4953657;29;20038;-75
2021/09/15 06:50:19;;;;;;;8.02;6.43;;;20.60;79.60;;;;;;4942396;29;20032;-72
2021/09/15 06:52:45;;;;;;;8.10;6.25;;;20.70;79.90;;;;;;4936556;29;20445;-73
2021/09/15 06:55:11;;;;;;;7.95;5.88;;;20.70;79.80;;;;;;4941693;29;20111;-73
2021/09/15 06:57:37;;;;;;;9.15;5.75;;;20.70;79.70;;;;;;4947289;29;20123;-68
2021/09/15 07:00:07;;;;;;;7.47;5.63;;;20.70;79.50;;;;;;4941417;29;20036;-69
2021/09/15 07:02:33;;;;;;;7.03;5.30;;;20.70;79.60;;;;;;4914079;29;20484;-68
2021/09/15 07:04:59;;;;;;;5.97;4.68;;;20.70;79.50;;;;;;4942919;29;20043;-68
2021/09/15 07:07:25;;;;;;;5.95;4.70;;;20.80;79.50;;;;;;4953041;29;20415;-69
2021/09/15 07:09:50;;;;;;;5.60;4.25;;;20.80;79.30;;;;;;4953045;29;20027;-69
2021/09/15 07:12:16;;;;;;;5.97;4.28;;;20.80;79.30;;;;;;4953342;29;20400;-70
2021/09/15 07:14:42;;;;;;;4.82;4.03;;;20.80;79.10;;;;;;4952335;29;20050;-68
2021/09/15 07:17:08;;;;;;;6.10;4.22;;;20.80;79.00;;;;;;4953135;29;20402;-68
2021/09/15 07:19:34;;;;;;;5.60;4.25;;;20.80;80.00;;;;;;4952972;29;20055;-68
2021/09/15 07:21:59;;;;;;;4.90;3.85;;;20.70;79.00;;;;;;4935925;29;20452;-68
2021/09/15 07:24:25;;;;;;;5.55;4.05;;;20.70;79.10;;;;;;4952753;29;20038;-69
2021/09/15 07:26:51;;;;;;;5.65;4.13;;;20.70;78.80;;;;;;4953272;29;20114;-68
2021/09/15 07:29:17;;;;;;;5.85;4.25;;;20.70;78.80;;;;;;4952781;29;20034;-69
2021/09/15 07:31:43;;;;;;;6.53;4.68;;;20.60;78.80;;;;;;4953764;29;20039;-69
2021/09/15 07:34:09;;;;;;;5.80;4.38;;;20.60;79.00;;;;;;4953067;29;20411;-72
2021/09/15 07:36:35;;;;;;;6.63;4.97;;;20.60;79.00;;;;;;4935098;29;20027;-73
2021/09/15 07:39:02;;;;;;;8.15;5.15;;;20.60;78.90;;;;;;4953330;29;20019;-71
2021/09/15 07:41:28;;;;;;;7.20;5.45;;;20.60;78.90;;;;;;4953345;29;20539;-72
2021/09/15 07:43:54;;;;;;;8.23;5.97;;;20.60;79.00;;;;;;4953371;29;20031;-72
2021/09/15 07:46:21;;;;;;;9.52;6.75;;;20.60;79.00;;;;;;4952322;29;20042;-70
2021/09/15 07:48:47;;;;;;;9.23;6.75;;;20.60;78.90;;;;;;4952975;29;20035;-70
2021/09/15 07:51:13;;;;;;;9.98;6.68;;;20.60;78.90;;;;;;4952746;29;20039;-71
2021/09/15 07:53:38;;;;;;;9.02;6.75;;;20.50;79.00;;;;;;4953115;29;20026;-70
2021/09/15 07:56:04;;;;;;;9.10;6.55;;;20.50;78.90;;;;;;4952553;28;20023;-71
2021/09/15 07:58:30;;;;;;;8.13;6.25;;;20.50;78.90;;;;;;4952009;29;20489;-71
2021/09/15 08:00:56;;;;;;;9.70;6.63;;;20.50;79.10;;;;;;4935663;29;20412;-72
2021/09/15 08:03:21;;;;;;;8.68;6.38;;;20.50;78.90;;;;;;4952776;29;20118;-73
2021/09/15 08:05:47;;;;;;;8.57;6.55;;;20.50;78.80;;;;;;4935549;29;20113;-72
2021/09/15 08:08:14;;;;;;;7.47;5.85;;;20.50;78.70;;;;;;4952342;29;20081;-72
2021/09/15 08:10:40;;;;;;;9.45;6.30;;;20.50;78.90;;;;;;4952872;29;20508;-73
2021/09/15 08:13:06;;;;;;;11.38;7.28;;;20.40;78.90;;;;;;4952401;29;20041;-73
2021/09/15 08:15:32;;;;;;;9.75;7.13;;;20.40;79.00;;;;;;4952777;29;20031;-73
2021/09/15 08:17:57;;;;;;;9.50;6.97;;;20.40;79.10;;;;;;4934304;29;20035;-72
2021/09/15 08:20:24;;;;;;;12.10;7.78;;;20.30;79.30;;;;;;4951026;29;20035;-72
2021/09/15 08:22:50;;;;;;;10.40;7.00;;;20.30;79.40;;;;;;4953136;29;20070;-73
2021/09/15 08:25:16;;;;;;;11.18;7.55;;;20.30;79.50;;;;;;4952592;29;20063;-74
2021/09/15 08:27:42;;;;;;;12.95;7.55;;;20.30;79.80;;;;;;4952423;29;20050;-72
2021/09/15 08:30:09;;;;;;;10.40;7.93;;;20.30;79.60;;;;;;4933890;29;20031;-72
2021/09/15 08:32:35;;;;;;;10.77;7.57;;;20.30;80.10;;;;;;4920777;29;20083;-73
2021/09/15 08:35:00;;;;;;;12.50;8.32;;;20.30;79.60;;;;;;4935588;29;20050;-72
2021/09/15 08:37:31;;;;;;;11.63;8.55;;;20.30;79.70;;;;;;4935396;29;20043;-72
2021/09/15 08:39:56;;;;;;;12.85;8.60;;;20.30;79.60;;;;;;4952031;29;20035;-72
2021/09/15 08:42:22;;;;;;;12.57;8.50;;;20.30;80.00;;;;;;4952385;29;20039;-72
2021/09/15 08:44:47;;;;;;;13.02;8.68;;;20.40;79.80;;;;;;4935313;29;20023;-72
2021/09/15 08:47:14;;;;;;;11.80;9.13;;;20.50;79.80;;;;;;4952646;29;20031;-72
2021/09/15 08:49:40;;;;;;;12.70;9.00;;;20.50;79.80;;;;;;4935329;29;20031;-72
2021/09/15 08:52:06;;;;;;;13.07;8.70;;;20.60;80.40;;;;;;4943863;29;20171;-73
2021/09/15 08:54:31;;;;;;;12.45;8.50;;;20.60;79.50;;;;;;4945345;29;20502;-75
2021/09/15 08:56:57;;;;;;;10.73;8.18;;;20.60;79.30;;;;;;4952054;29;20039;-80
2021/09/15 08:59:23;;;;;;;11.57;7.97;;;20.60;79.10;;;;;;4952483;29;20019;-72
2021/09/15 09:02:12;;;;;;;11.63;8.23;;;20.70;79.20;;;;;;4952226;29;20058;-72
2021/09/15 09:04:51;;;;;;;11.00;8.23;;;20.70;79.00;;;;;;4952650;29;20031;-73
2021/09/15 09:07:17;;;;;;;11.18;8.02;;;20.70;78.90;;;;;;4952273;28;20042;-73
2021/09/15 09:09:51;;;;;;;12.30;7.95;;;20.80;78.90;;;;;;4955138;29;20027;-72
2021/09/15 09:12:18;;;;;;;11.40;8.52;;;20.80;79.70;;;;;;4955191;29;20047;-75
2021/09/15 09:14:45;;;;;;;12.70;8.60;;;20.80;78.50;;;;;;4955857;29;20015;-70
2021/09/15 09:17:29;;;;;;;10.82;8.00;;;20.80;78.60;;;;;;4940455;29;20038;-73
2021/09/15 09:20:32;;;;;;;12.25;7.90;;;20.80;78.50;;;;;;4956201;29;20019;-73
2021/09/15 09:23:11;;;;;;;10.20;7.68;;;20.90;78.40;;;;;;4855142;29;20073;-73
2021/09/15 09:25:58;;;;;;;9.23;7.05;;;20.80;78.40;;;;;;4857150;29;20060;-73
2021/09/15 09:28:32;;;;;;;9.90;7.47;;;20.80;78.30;;;;;;4859790;29;20081;-74
2021/09/15 09:31:03;;;;;;;11.20;7.68;;;20.80;78.40;;;;;;4870993;29;20056;-73
2021/09/15 09:33:29;;;;;;;9.80;7.45;;;20.90;78.50;;;;;;4860374;29;20412;-73
2021/09/15 09:36:01;;;;;;;9.63;7.22;;;20.80;78.30;;;;;;4859900;29;20041;-73
2021/09/15 09:38:31;;;;;;;10.13;7.25;;;20.90;78.50;;;;;;4859988;29;20049;-73
2021/09/15 09:41:10;;;;;;;9.77;7.38;;;20.90;78.50;;;;;;4851638;29;20081;-73
2021/09/15 09:43:56;;;;;;;9.90;7.15;;;21.00;78.50;;;;;;4859086;29;20056;-73
2021/09/15 09:46:30;;;;;;;9.27;7.03;;;21.10;78.50;;;;;;4846879;29;20033;-72
2021/09/15 09:48:59;;;;;;;9.82;7.10;;;21.10;78.20;;;;;;4860232;29;20112;-72
2021/09/15 09:51:29;;;;;;;10.80;7.65;;;21.20;77.90;;;;;;4860911;29;20072;-72
2021/09/15 09:54:22;;;;;;;9.52;7.28;;;21.10;77.70;;;;;;4858995;29;20064;-72
2021/09/15 09:56:52;;;;;;;10.23;7.38;;;21.10;77.70;;;;;;4889406;29;20516;-72
2021/09/15 09:59:20;;;;;;;10.48;7.15;;;21.20;77.70;;;;;;4955116;29;20086;-73
2021/09/15 10:01:53;;;;;;;12.35;7.93;;;21.20;77.40;;;;;;4938329;29;20090;-73
2021/09/15 10:04:21;;;;;;;10.75;7.93;;;21.10;77.50;;;;;;4953922;29;20028;-72
2021/09/15 10:06:48;;;;;;;11.38;8.07;;;21.10;77.60;;;;;;4954985;29;20035;-72
2021/09/15 10:09:14;;;;;;;12.85;9.10;;;21.10;77.80;;;;;;4953212;29;20027;-72
2021/09/15 10:11:43;;;;;;;13.20;8.88;;;21.00;77.50;;;;;;4940171;29;20042;-73
2021/09/15 10:14:15;;;;;;;11.75;8.70;;;21.00;77.70;;;;;;4954857;29;20027;-73
2021/09/15 10:16:46;;;;;;;15.10;9.33;;;20.90;78.00;;;;;;4942277;29;20196;-72
2021/09/15 10:19:16;;;;;;;12.13;8.43;;;20.90;77.90;;;;;;4941554;29;20027;-73
2021/09/15 10:21:42;;;;;;;16.02;9.88;;;20.90;78.00;;;;;;4948124;29;20118;-72
2021/09/15 10:24:08;;;;;;;12.88;9.75;;;20.80;78.00;;;;;;4954413;29;20162;-72
2021/09/15 10:26:35;;;;;;;12.70;9.13;;;20.90;78.20;;;;;;4936136;29;20122;-72
2021/09/15 10:29:24;;;;;;;12.60;9.73;;;20.80;78.00;;;;;;4958507;28;20032;-72
2021/09/15 10:31:51;;;;;;;13.18;8.85;;;20.80;78.10;;;;;;4936657;29;20193;-72
2021/09/15 10:34:37;;;;;;;12.80;9.27;;;20.80;78.10;;;;;;4936031;29;20054;-74
2021/09/15 10:37:22;;;;;;;14.20;8.85;;;20.80;78.30;;;;;;4937949;29;20050;-72
2021/09/15 10:39:57;;;;;;;13.95;10.82;;;20.80;78.30;;;;;;4937975;29;20522;-71
2021/09/15 10:42:38;;;;;;;15.07;10.32;;;20.80;78.00;;;;;;4954792;29;20028;-71
2021/09/15 10:45:26;;;;;;;14.57;10.50;;;20.80;77.90;;;;;;4954745;29;20063;-72
2021/09/15 10:48:00;;;;;;;15.10;10.95;;;20.80;78.00;;;;;;4942156;29;20023;-72
2021/09/15 10:50:33;;;;;;;18.27;10.52;;;20.80;78.00;;;;;;4937310;29;20101;-72
2021/09/15 10:53:07;;;;;;;18.98;10.88;;;20.70;78.20;;;;;;4916230;29;20126;-72
2021/09/15 10:55:51;;;;;;;16.15;11.15;;;20.70;78.30;;;;;;4950306;29;20074;-72
2021/09/15 10:58:22;;;;;;;16.35;11.02;;;20.70;78.30;;;;;;4954072;29;20094;-71
2021/09/15 11:00:52;;;;;;;15.65;10.95;;;20.70;78.40;;;;;;4936583;29;20518;-71
2021/09/15 11:03:50;;;;;;;14.02;10.63;;;20.70;78.40;;;;;;4952409;29;20046;-72
2021/09/15 11:06:17;;;;;;;16.10;10.95;;;20.60;78.20;;;;;;4953900;29;20035;-71
2021/09/15 11:08:54;;;;;;;15.40;10.63;;;20.60;78.60;;;;;;4954305;29;20047;-71
2021/09/15 11:11:19;;;;;;;14.40;10.25;;;20.60;78.40;;;;;;4954066;29;20039;-71
2021/09/15 11:13:51;;;;;;;16.98;11.85;;;20.70;78.50;;;;;;4954470;29;20030;-71
2021/09/15 11:16:38;;;;;;;16.27;11.18;;;20.60;78.30;;;;;;4935517;29;20065;-70
2021/09/15 11:19:07;;;;;;;16.52;11.02;;;20.70;78.30;;;;;;4953897;29;20032;-71
2021/09/15 11:21:37;;;;;;;16.85;11.07;;;20.70;78.50;;;;;;4953671;29;20030;-70
2021/09/15 11:24:13;;;;;;;13.00;9.68;;;20.80;78.60;;;;;;4953532;29;20059;-71
2021/09/15 11:26:53;;;;;;;13.68;9.40;;;20.80;78.30;;;;;;4939932;29;20029;-70
2021/09/15 11:29:41;;;;;;;12.10;9.18;;;20.90;78.20;;;;;;4953724;29;20045;-71
2021/09/15 11:32:10;;;;;;;13.73;9.05;;;20.90;77.90;;;;;;4950788;28;20035;-71
2021/09/15 11:34:47;;;;;;;12.18;8.70;;;21.00;77.90;;;;;;4953350;29;20114;-71
2021/09/15 11:37:18;;;;;;;11.68;8.82;;;21.10;78.00;;;;;;4953652;29;20567;-72
2021/09/15 11:39:43;;;;;;;10.98;7.95;;;21.20;77.70;;;;;;4936176;29;20033;-72
2021/09/15 11:42:09;;;;;;;12.55;8.57;;;21.30;77.70;;;;;;4953788;29;20110;-73
2021/09/15 11:44:35;;;;;;;10.82;8.55;;;21.40;77.60;;;;;;4953559;29;20027;-72
2021/09/15 11:47:02;;;;;;;10.68;7.95;;;21.50;77.20;;;;;;4936769;29;20519;-72
2021/09/15 11:49:33;;;;;;;10.35;8.23;;;21.60;76.60;;;;;;4953025;29;20059;-73
2021/09/15 11:52:00;;;;;;;10.75;7.90;;;21.60;76.50;;;;;;4947865;29;20061;-72
2021/09/15 11:54:27;;;;;;;8.82;7.07;;;21.70;76.70;;;;;;4952413;29;20019;-72
2021/09/15 11:57:04;;;;;;;10.07;7.35;;;21.80;76.60;;;;;;4946968;29;20093;-73
2021/09/15 11:59:30;;;;;;;7.30;6.28;;;21.90;76.20;;;;;;4931513;29;20031;-72
2021/09/15 12:01:56;;;;;;;8.25;6.57;;;22.00;76.70;;;;;;4938912;29;20023;-72
2021/09/15 12:04:25;;;;;;;7.78;6.40;;;22.00;75.30;;;;;;4942802;29;20020;-72
2021/09/15 12:06:51;;;;;;;8.38;6.20;;;22.00;75.10;;;;;;4938871;29;20389;-73
2021/09/15 12:09:17;;;;;;;7.30;5.60;;;22.10;75.50;;;;;;4939991;29;20038;-73
2021/09/15 12:11:48;;;;;;;8.48;5.63;;;22.20;75.40;;;;;;4935944;29;20031;-73
2021/09/15 12:14:15;;;;;;;7.28;5.13;;;22.20;74.40;;;;;;4875481;29;20023;-72
2021/09/15 12:16:42;;;;;;;5.95;5.25;;;22.20;74.40;;;;;;4852478;29;20535;-71
2021/09/15 12:19:21;;;;;;;6.03;4.78;;;22.40;74.70;;;;;;4879528;29;20508;-72
2021/09/15 12:21:49;;;;;;;7.40;4.93;;;22.50;74.00;;;;;;4879068;29;20055;-71
2021/09/15 12:24:18;;;;;;;5.95;4.72;;;22.60;74.70;;;;;;4929294;29;20023;-71
2021/09/15 12:26:44;;;;;;;6.22;4.47;;;22.70;73.80;;;;;;4919229;29;20031;-71
2021/09/15 12:29:18;;;;;;;6.13;4.88;;;23.00;73.40;;;;;;4913962;29;20094;-71
2021/09/15 12:31:58;;;;;;;4.72;4.28;;;23.10;72.30;;;;;;4917367;29;20045;-73
2021/09/15 12:34:33;;;;;;;5.95;4.53;;;23.30;73.00;;;;;;4926909;29;20063;-70
2021/09/15 12:37:10;;;;;;;5.97;4.65;;;24.10;72.00;;;;;;4891871;29;20397;-71
2021/09/15 12:39:47;;;;;;;5.03;4.28;;;24.40;70.30;;;;;;4917955;29;20023;-71
2021/09/15 12:42:28;;;;;;;5.47;4.10;;;24.60;68.70;;;;;;4933759;28;20086;-72
2021/09/15 12:45:07;;;;;;;4.72;4.18;;;24.70;68.30;;;;;;4904858;29;20647;-71
2021/09/15 12:47:38;;;;;;;6.43;4.32;;;24.50;67.30;;;;;;4879309;29;20042;-71
2021/09/15 12:50:25;;;;;;;4.68;4.07;;;24.20;66.50;;;;;;4874695;29;20036;-73
2021/09/15 12:53:18;;;;;;;4.90;3.95;;;24.00;68.70;;;;;;4908268;29;20061;-72